Etusivu
METAR-TAF:

METAR-TAF

Lentoasemat :

Trondheimin lentoasema

Trondheim, Norja

Leveyspiiri: 63-28N, Pituuspiiri: 010-56E, korkeus merenpinnasta: 1 m

Tämänhetkinen sää

Tämä raportti tehtiin 34 minuuttia sitten, kello 15.50 UTC
Tuuli 7 kn lännestä/lounaasta, vaihdellen lounaan ja lännen välillä
Lämpötila 20°C
Kosteus 60%
Ilmanpaine 1025 hPa
Näkyvyys 10 km tai enemmän
ei pilviä alle 1500 m:ssä eikä cumulonimbus-pilviä

METAR: ENVA 111550Z 24007KT 220V280 CAVOK 20/12 Q1025 NOSIG RMK WIND 670FT 29007KT

Aika: 18:24 (16:24 UTC)

Sääennuste

Ennuste voimassa 11. päivästä klo 12 UTC - 12. päivään klo 12 UTC
Tuuli 10 kn lännestä/luoteesta
Näkyvyys 10 km tai enemmän
ei pilviä alle 1500 m:ssä eikä cumulonimbus-pilviä
Tulossa
11. päivästä klo 18 UTC - 11. päivään klo 20 UTC
Tuuli 5 kn idästä
Tulossa
12. päivästä klo 10 UTC - 12. päivään klo 12 UTC
Tuuli 10 kn lännestä/luoteesta

TAF: ENVA 1112/1212 29010KT CAVOK BECMG 1118/1120 08005KT BECMG 1210/1212 29010KT

Säähavainnot ja -ennusteet yli 4000 lentoasemalta (METAR- ja TAF-raportit).

Käytössä olevat sääasemat on merkitty karttaan keltaisilla ja punaisilla pisteillä.

Aseta hiiri pisteen päälle nähdäksesi sääaseman nimen.

Klikkaa sitten nähdäksesi säähavainnot ja -ennusteet.

Kartan vaihtaminen: klikkaa mustalla rastilla varustettuja vihreitä pisteitä, niin voit zoomata sisään; viivalla varustettua vihreää pistettä, niin voit zoomata ulos tai vihreitä nuolia, niin pääset viereisille kartoille.


METAR-TAF: